sensor_id;sensor_type;location;lat;lon;timestamp;P1;durP1;ratioP1;P2;durP2;ratioP2
26261;SDS011;13988;52.446;13.280;2024-02-21T00:00:45;4.22;;;2.90;;
26261;SDS011;13988;52.446;13.280;2024-02-21T00:03:10;7.75;;;2.97;;
26261;SDS011;13988;52.446;13.280;2024-02-21T00:05:36;14.75;;;3.30;;
26261;SDS011;13988;52.446;13.280;2024-02-21T00:08:02;10.80;;;4.00;;
26261;SDS011;13988;52.446;13.280;2024-02-21T00:10:28;11.80;;;4.55;;
26261;SDS011;13988;52.446;13.280;2024-02-21T00:12:54;7.95;;;3.70;;
26261;SDS011;13988;52.446;13.280;2024-02-21T00:15:19;11.70;;;2.78;;
26261;SDS011;13988;52.446;13.280;2024-02-21T00:17:46;12.57;;;5.47;;
26261;SDS011;13988;52.446;13.280;2024-02-21T00:20:13;8.73;;;3.15;;
26261;SDS011;13988;52.446;13.280;2024-02-21T00:22:38;13.55;;;3.20;;
26261;SDS011;13988;52.446;13.280;2024-02-21T00:25:04;8.85;;;3.00;;
26261;SDS011;13988;52.446;13.280;2024-02-21T00:27:30;10.90;;;3.13;;
26261;SDS011;13988;52.446;13.280;2024-02-21T00:29:57;7.97;;;3.08;;
26261;SDS011;13988;52.446;13.280;2024-02-21T00:32:22;9.93;;;3.72;;
26261;SDS011;13988;52.446;13.280;2024-02-21T00:34:48;5.55;;;3.40;;
26261;SDS011;13988;52.446;13.280;2024-02-21T00:37:14;8.00;;;3.33;;
26261;SDS011;13988;52.446;13.280;2024-02-21T00:39:39;12.30;;;3.50;;
26261;SDS011;13988;52.446;13.280;2024-02-21T00:42:05;10.45;;;3.67;;
26261;SDS011;13988;52.446;13.280;2024-02-21T00:44:32;11.77;;;3.78;;
26261;SDS011;13988;52.446;13.280;2024-02-21T00:46:57;8.73;;;3.30;;
26261;SDS011;13988;52.446;13.280;2024-02-21T00:49:23;12.13;;;3.20;;
26261;SDS011;13988;52.446;13.280;2024-02-21T00:51:49;10.43;;;2.92;;
26261;SDS011;13988;52.446;13.280;2024-02-21T00:54:14;11.00;;;3.75;;
26261;SDS011;13988;52.446;13.280;2024-02-21T00:56:41;6.80;;;4.18;;
26261;SDS011;13988;52.446;13.280;2024-02-21T00:59:06;9.10;;;3.63;;
26261;SDS011;13988;52.446;13.280;2024-02-21T01:01:32;9.95;;;2.85;;
26261;SDS011;13988;52.446;13.280;2024-02-21T01:03:58;8.43;;;3.08;;
26261;SDS011;13988;52.446;13.280;2024-02-21T01:06:23;10.07;;;2.72;;
26261;SDS011;13988;52.446;13.280;2024-02-21T01:08:49;8.38;;;2.35;;
26261;SDS011;13988;52.446;13.280;2024-02-21T01:11:18;11.13;;;3.28;;
26261;SDS011;13988;52.446;13.280;2024-02-21T01:13:43;3.80;;;2.85;;
26261;SDS011;13988;52.446;13.280;2024-02-21T01:16:09;7.72;;;3.25;;
26261;SDS011;13988;52.446;13.280;2024-02-21T01:18:37;13.35;;;3.03;;
26261;SDS011;13988;52.446;13.280;2024-02-21T01:21:03;13.20;;;3.47;;
26261;SDS011;13988;52.446;13.280;2024-02-21T01:23:32;12.52;;;3.28;;
26261;SDS011;13988;52.446;13.280;2024-02-21T01:26:01;9.95;;;2.50;;
26261;SDS011;13988;52.446;13.280;2024-02-21T01:28:28;8.18;;;3.13;;
26261;SDS011;13988;52.446;13.280;2024-02-21T01:30:54;9.43;;;3.15;;
26261;SDS011;13988;52.446;13.280;2024-02-21T01:33:20;9.90;;;3.05;;
26261;SDS011;13988;52.446;13.280;2024-02-21T01:35:46;13.90;;;2.85;;
26261;SDS011;13988;52.446;13.280;2024-02-21T01:38:15;8.50;;;3.00;;
26261;SDS011;13988;52.446;13.280;2024-02-21T01:40:41;10.43;;;3.70;;
26261;SDS011;13988;52.446;13.280;2024-02-21T01:43:17;11.95;;;2.55;;
26261;SDS011;13988;52.446;13.280;2024-02-21T01:45:46;8.65;;;3.50;;
26261;SDS011;13988;52.446;13.280;2024-02-21T01:48:14;12.05;;;3.58;;
26261;SDS011;13988;52.446;13.280;2024-02-21T01:50:40;14.88;;;3.00;;
26261;SDS011;13988;52.446;13.280;2024-02-21T01:53:06;12.57;;;3.47;;
26261;SDS011;13988;52.446;13.280;2024-02-21T01:55:32;6.00;;;2.70;;
26261;SDS011;13988;52.446;13.280;2024-02-21T01:57:59;10.30;;;2.92;;
26261;SDS011;13988;52.446;13.280;2024-02-21T02:00:24;5.07;;;2.75;;
26261;SDS011;13988;52.446;13.280;2024-02-21T02:02:51;9.13;;;2.90;;
26261;SDS011;13988;52.446;13.280;2024-02-21T02:05:17;16.95;;;3.30;;
26261;SDS011;13988;52.446;13.280;2024-02-21T02:07:46;8.48;;;2.67;;
26261;SDS011;13988;52.446;13.280;2024-02-21T02:10:11;4.65;;;2.42;;
26261;SDS011;13988;52.446;13.280;2024-02-21T02:12:37;3.95;;;2.25;;
26261;SDS011;13988;52.446;13.280;2024-02-21T02:15:03;13.73;;;2.80;;
26261;SDS011;13988;52.446;13.280;2024-02-21T02:17:32;9.98;;;2.80;;
26261;SDS011;13988;52.446;13.280;2024-02-21T02:19:57;7.32;;;3.10;;
26261;SDS011;13988;52.446;13.280;2024-02-21T02:22:25;8.88;;;3.15;;
26261;SDS011;13988;52.446;13.280;2024-02-21T02:24:54;7.43;;;2.60;;
26261;SDS011;13988;52.446;13.280;2024-02-21T02:27:20;10.80;;;3.03;;
26261;SDS011;13988;52.446;13.280;2024-02-21T02:29:48;11.05;;;2.65;;
26261;SDS011;13988;52.446;13.280;2024-02-21T02:32:14;14.60;;;3.58;;
26261;SDS011;13988;52.446;13.280;2024-02-21T02:34:40;6.13;;;2.78;;
26261;SDS011;13988;52.446;13.280;2024-02-21T02:37:05;8.25;;;2.13;;
26261;SDS011;13988;52.446;13.280;2024-02-21T02:39:31;13.32;;;2.72;;
26261;SDS011;13988;52.446;13.280;2024-02-21T02:41:56;5.90;;;3.00;;
26261;SDS011;13988;52.446;13.280;2024-02-21T02:44:22;9.05;;;2.90;;
26261;SDS011;13988;52.446;13.280;2024-02-21T02:46:49;8.07;;;3.17;;
26261;SDS011;13988;52.446;13.280;2024-02-21T02:49:14;6.78;;;2.47;;
26261;SDS011;13988;52.446;13.280;2024-02-21T02:51:43;6.55;;;2.45;;
26261;SDS011;13988;52.446;13.280;2024-02-21T02:54:09;8.00;;;2.55;;
26261;SDS011;13988;52.446;13.280;2024-02-21T02:56:35;7.60;;;2.58;;
26261;SDS011;13988;52.446;13.280;2024-02-21T02:59:01;6.32;;;2.63;;
26261;SDS011;13988;52.446;13.280;2024-02-21T03:01:27;10.93;;;3.42;;
26261;SDS011;13988;52.446;13.280;2024-02-21T03:03:53;6.15;;;3.03;;
26261;SDS011;13988;52.446;13.280;2024-02-21T03:06:19;9.05;;;3.28;;
26261;SDS011;13988;52.446;13.280;2024-02-21T03:08:44;6.68;;;3.15;;
26261;SDS011;13988;52.446;13.280;2024-02-21T03:11:10;9.73;;;3.33;;
26261;SDS011;13988;52.446;13.280;2024-02-21T03:13:36;8.45;;;3.00;;
26261;SDS011;13988;52.446;13.280;2024-02-21T03:16:02;5.20;;;2.92;;
26261;SDS011;13988;52.446;13.280;2024-02-21T03:18:27;11.70;;;3.20;;
26261;SDS011;13988;52.446;13.280;2024-02-21T03:20:53;6.20;;;3.03;;
26261;SDS011;13988;52.446;13.280;2024-02-21T03:23:19;7.88;;;2.45;;
26261;SDS011;13988;52.446;13.280;2024-02-21T03:25:44;7.28;;;3.05;;
26261;SDS011;13988;52.446;13.280;2024-02-21T03:28:10;6.68;;;2.72;;
26261;SDS011;13988;52.446;13.280;2024-02-21T03:30:35;5.78;;;2.80;;
26261;SDS011;13988;52.446;13.280;2024-02-21T03:33:02;8.98;;;2.90;;
26261;SDS011;13988;52.446;13.280;2024-02-21T03:35:28;8.27;;;3.72;;
26261;SDS011;13988;52.446;13.280;2024-02-21T03:37:54;15.82;;;4.07;;
26261;SDS011;13988;52.446;13.280;2024-02-21T03:40:19;9.57;;;2.60;;
26261;SDS011;13988;52.446;13.280;2024-02-21T03:42:45;7.78;;;4.22;;
26261;SDS011;13988;52.446;13.280;2024-02-21T03:45:11;13.68;;;2.90;;
26261;SDS011;13988;52.446;13.280;2024-02-21T03:47:36;9.05;;;3.95;;
26261;SDS011;13988;52.446;13.280;2024-02-21T03:50:02;3.30;;;2.53;;
26261;SDS011;13988;52.446;13.280;2024-02-21T03:52:27;6.38;;;3.30;;
26261;SDS011;13988;52.446;13.280;2024-02-21T03:54:53;11.00;;;3.05;;
26261;SDS011;13988;52.446;13.280;2024-02-21T03:57:20;7.18;;;3.42;;
26261;SDS011;13988;52.446;13.280;2024-02-21T03:59:46;11.45;;;4.13;;
26261;SDS011;13988;52.446;13.280;2024-02-21T04:02:14;7.43;;;3.45;;
26261;SDS011;13988;52.446;13.280;2024-02-21T04:04:42;7.05;;;2.42;;
26261;SDS011;13988;52.446;13.280;2024-02-21T04:07:12;9.50;;;3.45;;
26261;SDS011;13988;52.446;13.280;2024-02-21T04:09:38;8.77;;;3.63;;
26261;SDS011;13988;52.446;13.280;2024-02-21T04:12:04;5.40;;;3.17;;
26261;SDS011;13988;52.446;13.280;2024-02-21T04:14:30;6.20;;;2.45;;
26261;SDS011;13988;52.446;13.280;2024-02-21T04:16:55;8.35;;;3.03;;
26261;SDS011;13988;52.446;13.280;2024-02-21T04:19:21;8.85;;;4.18;;
26261;SDS011;13988;52.446;13.280;2024-02-21T04:21:47;8.93;;;3.25;;
26261;SDS011;13988;52.446;13.280;2024-02-21T04:24:12;5.13;;;3.00;;
26261;SDS011;13988;52.446;13.280;2024-02-21T04:26:38;8.45;;;3.53;;
26261;SDS011;13988;52.446;13.280;2024-02-21T04:29:04;7.35;;;2.88;;
26261;SDS011;13988;52.446;13.280;2024-02-21T04:31:31;9.45;;;3.53;;
26261;SDS011;13988;52.446;13.280;2024-02-21T04:33:57;5.93;;;3.08;;
26261;SDS011;13988;52.446;13.280;2024-02-21T04:36:23;9.93;;;3.17;;
26261;SDS011;13988;52.446;13.280;2024-02-21T04:38:48;18.40;;;3.63;;
26261;SDS011;13988;52.446;13.280;2024-02-21T04:41:15;5.13;;;3.05;;
26261;SDS011;13988;52.446;13.280;2024-02-21T04:43:40;12.90;;;3.38;;
26261;SDS011;13988;52.446;13.280;2024-02-21T04:46:06;10.18;;;4.03;;
26261;SDS011;13988;52.446;13.280;2024-02-21T04:48:32;6.70;;;3.00;;
26261;SDS011;13988;52.446;13.280;2024-02-21T04:50:58;4.78;;;2.70;;
26261;SDS011;13988;52.446;13.280;2024-02-21T04:53:23;8.98;;;3.15;;
26261;SDS011;13988;52.446;13.280;2024-02-21T04:55:49;12.38;;;4.07;;
26261;SDS011;13988;52.446;13.280;2024-02-21T04:58:14;12.07;;;4.07;;
26261;SDS011;13988;52.446;13.280;2024-02-21T05:00:40;6.07;;;3.42;;
26261;SDS011;13988;52.446;13.280;2024-02-21T05:03:05;6.00;;;3.15;;
26261;SDS011;13988;52.446;13.280;2024-02-21T05:05:31;8.40;;;3.35;;
26261;SDS011;13988;52.446;13.280;2024-02-21T05:07:57;11.60;;;3.78;;
26261;SDS011;13988;52.446;13.280;2024-02-21T05:10:22;13.70;;;3.63;;
26261;SDS011;13988;52.446;13.280;2024-02-21T05:12:48;10.50;;;3.40;;
26261;SDS011;13988;52.446;13.280;2024-02-21T05:15:13;12.07;;;3.33;;
26261;SDS011;13988;52.446;13.280;2024-02-21T05:17:39;12.65;;;3.88;;
26261;SDS011;13988;52.446;13.280;2024-02-21T05:20:05;8.15;;;3.67;;
26261;SDS011;13988;52.446;13.280;2024-02-21T05:22:31;13.18;;;3.75;;
26261;SDS011;13988;52.446;13.280;2024-02-21T05:24:57;7.05;;;3.92;;
26261;SDS011;13988;52.446;13.280;2024-02-21T05:27:22;9.10;;;3.08;;
26261;SDS011;13988;52.446;13.280;2024-02-21T05:29:48;9.75;;;3.47;;
26261;SDS011;13988;52.446;13.280;2024-02-21T05:32:14;6.78;;;3.45;;
26261;SDS011;13988;52.446;13.280;2024-02-21T05:34:39;6.90;;;3.30;;
26261;SDS011;13988;52.446;13.280;2024-02-21T05:37:05;5.78;;;3.53;;
26261;SDS011;13988;52.446;13.280;2024-02-21T05:39:30;12.98;;;3.58;;
26261;SDS011;13988;52.446;13.280;2024-02-21T05:41:56;9.57;;;3.78;;
26261;SDS011;13988;52.446;13.280;2024-02-21T05:44:22;11.40;;;3.65;;
26261;SDS011;13988;52.446;13.280;2024-02-21T05:46:47;9.80;;;4.20;;
26261;SDS011;13988;52.446;13.280;2024-02-21T05:49:13;10.82;;;3.78;;
26261;SDS011;13988;52.446;13.280;2024-02-21T05:51:39;11.40;;;4.68;;
26261;SDS011;13988;52.446;13.280;2024-02-21T05:54:05;6.80;;;4.05;;
26261;SDS011;13988;52.446;13.280;2024-02-21T05:56:32;11.00;;;4.55;;
26261;SDS011;13988;52.446;13.280;2024-02-21T05:58:57;13.32;;;4.20;;
26261;SDS011;13988;52.446;13.280;2024-02-21T06:01:23;7.88;;;3.80;;
26261;SDS011;13988;52.446;13.280;2024-02-21T06:03:49;11.50;;;4.43;;
26261;SDS011;13988;52.446;13.280;2024-02-21T06:06:15;15.88;;;4.78;;
26261;SDS011;13988;52.446;13.280;2024-02-21T06:08:40;11.13;;;3.78;;
26261;SDS011;13988;52.446;13.280;2024-02-21T06:11:06;11.32;;;4.05;;
26261;SDS011;13988;52.446;13.280;2024-02-21T06:13:32;8.98;;;4.10;;
26261;SDS011;13988;52.446;13.280;2024-02-21T06:15:57;8.88;;;4.15;;
26261;SDS011;13988;52.446;13.280;2024-02-21T06:18:23;10.32;;;4.00;;
26261;SDS011;13988;52.446;13.280;2024-02-21T06:20:49;9.45;;;4.20;;
26261;SDS011;13988;52.446;13.280;2024-02-21T06:23:17;12.30;;;4.15;;
26261;SDS011;13988;52.446;13.280;2024-02-21T06:25:43;10.50;;;3.75;;
26261;SDS011;13988;52.446;13.280;2024-02-21T06:28:09;7.95;;;3.67;;
26261;SDS011;13988;52.446;13.280;2024-02-21T06:30:35;10.40;;;3.85;;
26261;SDS011;13988;52.446;13.280;2024-02-21T06:33:01;10.38;;;4.10;;
26261;SDS011;13988;52.446;13.280;2024-02-21T06:35:27;12.95;;;4.53;;
26261;SDS011;13988;52.446;13.280;2024-02-21T06:37:53;10.02;;;4.25;;
26261;SDS011;13988;52.446;13.280;2024-02-21T06:40:20;8.68;;;3.95;;
26261;SDS011;13988;52.446;13.280;2024-02-21T06:42:47;16.27;;;4.82;;
26261;SDS011;13988;52.446;13.280;2024-02-21T06:45:12;9.63;;;3.55;;
26261;SDS011;13988;52.446;13.280;2024-02-21T06:47:38;9.60;;;4.90;;
26261;SDS011;13988;52.446;13.280;2024-02-21T06:50:04;14.00;;;5.05;;
26261;SDS011;13988;52.446;13.280;2024-02-21T06:52:30;11.60;;;4.15;;
26261;SDS011;13988;52.446;13.280;2024-02-21T06:54:56;13.32;;;4.40;;
26261;SDS011;13988;52.446;13.280;2024-02-21T06:57:22;11.68;;;3.88;;
26261;SDS011;13988;52.446;13.280;2024-02-21T06:59:48;11.85;;;4.07;;
26261;SDS011;13988;52.446;13.280;2024-02-21T07:02:14;13.35;;;3.75;;
26261;SDS011;13988;52.446;13.280;2024-02-21T07:04:40;7.95;;;3.80;;
26261;SDS011;13988;52.446;13.280;2024-02-21T07:07:05;14.45;;;3.92;;
26261;SDS011;13988;52.446;13.280;2024-02-21T07:09:31;10.60;;;4.35;;
26261;SDS011;13988;52.446;13.280;2024-02-21T07:11:59;16.65;;;4.68;;
26261;SDS011;13988;52.446;13.280;2024-02-21T07:14:27;8.55;;;4.60;;
26261;SDS011;13988;52.446;13.280;2024-02-21T07:16:53;12.23;;;4.57;;
26261;SDS011;13988;52.446;13.280;2024-02-21T07:19:19;9.57;;;4.43;;
26261;SDS011;13988;52.446;13.280;2024-02-21T07:21:45;16.17;;;4.65;;
26261;SDS011;13988;52.446;13.280;2024-02-21T07:24:10;7.47;;;3.67;;
26261;SDS011;13988;52.446;13.280;2024-02-21T07:26:36;11.05;;;4.65;;
26261;SDS011;13988;52.446;13.280;2024-02-21T07:29:02;10.70;;;3.78;;
26261;SDS011;13988;52.446;13.280;2024-02-21T07:31:28;11.57;;;3.97;;
26261;SDS011;13988;52.446;13.280;2024-02-21T07:33:53;6.43;;;4.07;;
26261;SDS011;13988;52.446;13.280;2024-02-21T07:36:27;8.98;;;3.72;;
26261;SDS011;13988;52.446;13.280;2024-02-21T07:38:54;13.60;;;3.53;;
26261;SDS011;13988;52.446;13.280;2024-02-21T07:41:20;12.15;;;3.55;;
26261;SDS011;13988;52.446;13.280;2024-02-21T07:43:46;9.45;;;4.18;;
26261;SDS011;13988;52.446;13.280;2024-02-21T07:46:13;6.68;;;3.95;;
26261;SDS011;13988;52.446;13.280;2024-02-21T07:48:39;8.10;;;3.70;;
26261;SDS011;13988;52.446;13.280;2024-02-21T07:51:04;6.90;;;3.20;;
26261;SDS011;13988;52.446;13.280;2024-02-21T07:53:30;8.10;;;4.78;;
26261;SDS011;13988;52.446;13.280;2024-02-21T07:55:56;10.05;;;3.90;;
26261;SDS011;13988;52.446;13.280;2024-02-21T07:58:22;11.05;;;4.05;;
26261;SDS011;13988;52.446;13.280;2024-02-21T08:00:47;6.95;;;4.15;;
26261;SDS011;13988;52.446;13.280;2024-02-21T08:03:13;6.28;;;3.97;;
26261;SDS011;13988;52.446;13.280;2024-02-21T08:05:40;12.27;;;4.05;;
26261;SDS011;13988;52.446;13.280;2024-02-21T08:08:06;9.65;;;4.13;;
26261;SDS011;13988;52.446;13.280;2024-02-21T08:10:33;7.05;;;4.35;;
26261;SDS011;13988;52.446;13.280;2024-02-21T08:12:59;9.02;;;3.85;;
26261;SDS011;13988;52.446;13.280;2024-02-21T08:15:24;10.55;;;3.90;;
26261;SDS011;13988;52.446;13.280;2024-02-21T08:17:54;10.57;;;4.15;;
26261;SDS011;13988;52.446;13.280;2024-02-21T08:20:23;10.30;;;4.45;;
26261;SDS011;13988;52.446;13.280;2024-02-21T08:22:49;19.00;;;4.45;;
26261;SDS011;13988;52.446;13.280;2024-02-21T08:25:15;11.75;;;4.63;;
26261;SDS011;13988;52.446;13.280;2024-02-21T08:27:41;14.63;;;4.65;;
26261;SDS011;13988;52.446;13.280;2024-02-21T08:30:06;10.73;;;4.35;;
26261;SDS011;13988;52.446;13.280;2024-02-21T08:32:33;11.77;;;4.07;;
26261;SDS011;13988;52.446;13.280;2024-02-21T08:35:00;7.78;;;3.78;;
26261;SDS011;13988;52.446;13.280;2024-02-21T08:37:29;12.68;;;5.55;;
26261;SDS011;13988;52.446;13.280;2024-02-21T08:39:55;8.93;;;4.43;;
26261;SDS011;13988;52.446;13.280;2024-02-21T08:42:20;12.73;;;4.80;;
26261;SDS011;13988;52.446;13.280;2024-02-21T08:44:46;11.43;;;4.85;;
26261;SDS011;13988;52.446;13.280;2024-02-21T08:47:12;12.00;;;4.45;;
26261;SDS011;13988;52.446;13.280;2024-02-21T08:49:37;13.98;;;5.22;;
26261;SDS011;13988;52.446;13.280;2024-02-21T08:52:03;12.20;;;4.80;;
26261;SDS011;13988;52.446;13.280;2024-02-21T08:54:30;12.35;;;4.78;;
26261;SDS011;13988;52.446;13.280;2024-02-21T08:56:56;11.32;;;4.65;;
26261;SDS011;13988;52.446;13.280;2024-02-21T08:59:21;13.25;;;5.18;;
26261;SDS011;13988;52.446;13.280;2024-02-21T09:01:47;11.02;;;4.90;;
26261;SDS011;13988;52.446;13.280;2024-02-21T09:04:13;9.85;;;4.60;;
26261;SDS011;13988;52.446;13.280;2024-02-21T09:06:38;12.15;;;5.25;;
26261;SDS011;13988;52.446;13.280;2024-02-21T09:09:07;14.93;;;5.97;;
26261;SDS011;13988;52.446;13.280;2024-02-21T09:11:34;16.50;;;4.85;;
26261;SDS011;13988;52.446;13.280;2024-02-21T09:13:59;14.35;;;5.30;;
26261;SDS011;13988;52.446;13.280;2024-02-21T09:16:25;10.38;;;5.00;;
26261;SDS011;13988;52.446;13.280;2024-02-21T09:18:51;13.20;;;5.63;;
26261;SDS011;13988;52.446;13.280;2024-02-21T09:21:17;9.40;;;5.15;;
26261;SDS011;13988;52.446;13.280;2024-02-21T09:23:43;9.82;;;5.18;;
26261;SDS011;13988;52.446;13.280;2024-02-21T09:26:10;10.63;;;4.57;;
26261;SDS011;13988;52.446;13.280;2024-02-21T09:28:39;13.07;;;4.82;;
26261;SDS011;13988;52.446;13.280;2024-02-21T09:31:04;11.70;;;4.30;;
26261;SDS011;13988;52.446;13.280;2024-02-21T09:33:30;11.38;;;5.47;;
26261;SDS011;13988;52.446;13.280;2024-02-21T09:35:56;11.50;;;5.75;;
26261;SDS011;13988;52.446;13.280;2024-02-21T09:38:21;10.05;;;5.07;;
26261;SDS011;13988;52.446;13.280;2024-02-21T09:40:47;12.38;;;5.95;;
26261;SDS011;13988;52.446;13.280;2024-02-21T09:43:17;9.00;;;4.38;;
26261;SDS011;13988;52.446;13.280;2024-02-21T09:45:43;9.18;;;4.55;;
26261;SDS011;13988;52.446;13.280;2024-02-21T09:48:15;15.10;;;5.18;;
26261;SDS011;13988;52.446;13.280;2024-02-21T09:50:44;13.98;;;5.85;;
26261;SDS011;13988;52.446;13.280;2024-02-21T09:53:12;11.35;;;5.60;;
26261;SDS011;13988;52.446;13.280;2024-02-21T09:55:39;10.10;;;5.68;;
26261;SDS011;13988;52.446;13.280;2024-02-21T09:58:07;8.43;;;4.93;;
26261;SDS011;13988;52.446;13.280;2024-02-21T10:00:33;15.93;;;5.25;;
26261;SDS011;13988;52.446;13.280;2024-02-21T10:03:00;13.52;;;5.65;;
26261;SDS011;13988;52.446;13.280;2024-02-21T10:05:25;13.25;;;5.60;;
26261;SDS011;13988;52.446;13.280;2024-02-21T10:07:52;10.93;;;5.40;;
26261;SDS011;13988;52.446;13.280;2024-02-21T10:10:19;16.13;;;3.85;;
26261;SDS011;13988;52.446;13.280;2024-02-21T10:12:50;8.25;;;4.35;;
26261;SDS011;13988;52.446;13.280;2024-02-21T10:15:19;13.02;;;5.10;;
26261;SDS011;13988;52.446;13.280;2024-02-21T10:17:46;11.98;;;5.15;;
26261;SDS011;13988;52.446;13.280;2024-02-21T10:20:12;10.98;;;5.13;;
26261;SDS011;13988;52.446;13.280;2024-02-21T10:22:40;17.42;;;5.88;;
26261;SDS011;13988;52.446;13.280;2024-02-21T10:25:09;6.50;;;4.22;;
26261;SDS011;13988;52.446;13.280;2024-02-21T10:27:38;7.43;;;3.75;;
26261;SDS011;13988;52.446;13.280;2024-02-21T10:30:08;11.32;;;4.30;;
26261;SDS011;13988;52.446;13.280;2024-02-21T10:32:51;9.88;;;4.90;;
26261;SDS011;13988;52.446;13.280;2024-02-21T10:35:27;8.95;;;4.15;;
26261;SDS011;13988;52.446;13.280;2024-02-21T10:37:57;11.15;;;4.95;;
26261;SDS011;13988;52.446;13.280;2024-02-21T10:40:26;12.07;;;5.10;;
26261;SDS011;13988;52.446;13.280;2024-02-21T10:42:57;9.82;;;4.68;;
26261;SDS011;13988;52.446;13.280;2024-02-21T10:45:31;11.88;;;5.18;;
26261;SDS011;13988;52.446;13.280;2024-02-21T10:51:02;13.10;;;5.97;;
26261;SDS011;13988;52.446;13.280;2024-02-21T10:53:52;7.97;;;4.65;;
26261;SDS011;13988;52.446;13.280;2024-02-21T10:56:44;11.35;;;4.10;;
26261;SDS011;13988;52.446;13.280;2024-02-21T10:59:11;6.90;;;4.32;;
26261;SDS011;13988;52.446;13.280;2024-02-21T11:01:38;7.97;;;4.20;;
26261;SDS011;13988;52.446;13.280;2024-02-21T11:04:05;14.57;;;5.57;;
26261;SDS011;13988;52.446;13.280;2024-02-21T11:06:31;14.48;;;4.43;;
26261;SDS011;13988;52.446;13.280;2024-02-21T11:09:03;12.15;;;4.05;;
26261;SDS011;13988;52.446;13.280;2024-02-21T11:11:30;9.65;;;4.82;;
26261;SDS011;13988;52.446;13.280;2024-02-21T11:14:18;7.60;;;3.70;;
26261;SDS011;13988;52.446;13.280;2024-02-21T11:19:24;8.90;;;3.95;;
26261;SDS011;13988;52.446;13.280;2024-02-21T11:21:51;10.25;;;4.45;;
26261;SDS011;13988;52.446;13.280;2024-02-21T11:24:31;7.50;;;4.55;;
26261;SDS011;13988;52.446;13.280;2024-02-21T11:27:08;8.93;;;4.38;;
26261;SDS011;13988;52.446;13.280;2024-02-21T11:29:48;8.15;;;4.13;;
26261;SDS011;13988;52.446;13.280;2024-02-21T11:32:16;8.10;;;3.50;;
26261;SDS011;13988;52.446;13.280;2024-02-21T11:35:19;11.30;;;4.15;;
26261;SDS011;13988;52.446;13.280;2024-02-21T11:37:44;6.70;;;4.30;;
26261;SDS011;13988;52.446;13.280;2024-02-21T11:40:11;4.88;;;3.45;;
26261;SDS011;13988;52.446;13.280;2024-02-21T11:42:37;7.22;;;3.78;;
26261;SDS011;13988;52.446;13.280;2024-02-21T11:45:03;11.13;;;4.15;;
26261;SDS011;13988;52.446;13.280;2024-02-21T11:47:29;8.75;;;4.25;;
26261;SDS011;13988;52.446;13.280;2024-02-21T11:49:55;4.78;;;3.70;;
26261;SDS011;13988;52.446;13.280;2024-02-21T11:52:21;6.22;;;3.10;;
26261;SDS011;13988;52.446;13.280;2024-02-21T11:54:50;6.10;;;4.22;;
26261;SDS011;13988;52.446;13.280;2024-02-21T11:57:17;4.55;;;3.38;;
26261;SDS011;13988;52.446;13.280;2024-02-21T11:59:44;7.28;;;3.35;;
26261;SDS011;13988;52.446;13.280;2024-02-21T12:02:10;7.43;;;4.05;;
26261;SDS011;13988;52.446;13.280;2024-02-21T12:04:36;8.20;;;3.40;;
26261;SDS011;13988;52.446;13.280;2024-02-21T12:07:02;10.27;;;2.83;;
26261;SDS011;13988;52.446;13.280;2024-02-21T12:09:31;3.72;;;3.00;;
26261;SDS011;13988;52.446;13.280;2024-02-21T12:12:00;6.28;;;3.10;;
26261;SDS011;13988;52.446;13.280;2024-02-21T12:14:32;6.03;;;4.55;;
26261;SDS011;13988;52.446;13.280;2024-02-21T12:17:00;6.22;;;3.75;;
26261;SDS011;13988;52.446;13.280;2024-02-21T12:19:28;8.93;;;4.07;;
26261;SDS011;13988;52.446;13.280;2024-02-21T12:21:54;4.90;;;3.22;;
26261;SDS011;13988;52.446;13.280;2024-02-21T12:24:22;3.97;;;2.80;;
26261;SDS011;13988;52.446;13.280;2024-02-21T12:26:50;5.72;;;3.25;;
26261;SDS011;13988;52.446;13.280;2024-02-21T12:29:19;4.55;;;2.88;;
26261;SDS011;13988;52.446;13.280;2024-02-21T12:31:49;3.58;;;2.40;;
26261;SDS011;13988;52.446;13.280;2024-02-21T12:34:15;7.30;;;2.90;;
26261;SDS011;13988;52.446;13.280;2024-02-21T12:36:42;4.28;;;3.08;;
26261;SDS011;13988;52.446;13.280;2024-02-21T12:39:12;7.78;;;2.85;;
26261;SDS011;13988;52.446;13.280;2024-02-21T12:41:38;3.85;;;3.05;;
26261;SDS011;13988;52.446;13.280;2024-02-21T12:44:05;4.38;;;2.42;;
26261;SDS011;13988;52.446;13.280;2024-02-21T12:46:36;3.50;;;2.15;;
26261;SDS011;13988;52.446;13.280;2024-02-21T12:49:02;6.63;;;2.53;;
26261;SDS011;13988;52.446;13.280;2024-02-21T12:51:28;4.10;;;2.40;;
26261;SDS011;13988;52.446;13.280;2024-02-21T12:53:54;8.32;;;2.53;;
26261;SDS011;13988;52.446;13.280;2024-02-21T12:56:20;5.80;;;2.95;;
26261;SDS011;13988;52.446;13.280;2024-02-21T12:58:46;7.55;;;2.42;;
26261;SDS011;13988;52.446;13.280;2024-02-21T13:01:12;4.72;;;2.72;;
26261;SDS011;13988;52.446;13.280;2024-02-21T13:03:37;4.95;;;2.53;;
26261;SDS011;13988;52.446;13.280;2024-02-21T13:06:03;4.65;;;2.67;;
26261;SDS011;13988;52.446;13.280;2024-02-21T13:08:30;4.22;;;2.55;;
26261;SDS011;13988;52.446;13.280;2024-02-21T13:10:56;4.05;;;2.60;;
26261;SDS011;13988;52.446;13.280;2024-02-21T13:13:21;3.05;;;2.25;;
26261;SDS011;13988;52.446;13.280;2024-02-21T13:15:47;4.65;;;2.67;;
26261;SDS011;13988;52.446;13.280;2024-02-21T13:18:13;3.45;;;2.42;;
26261;SDS011;13988;52.446;13.280;2024-02-21T13:20:38;9.23;;;2.92;;
26261;SDS011;13988;52.446;13.280;2024-02-21T13:23:04;6.80;;;3.50;;
26261;SDS011;13988;52.446;13.280;2024-02-21T13:25:29;6.68;;;3.40;;
26261;SDS011;13988;52.446;13.280;2024-02-21T13:27:55;6.75;;;2.97;;
26261;SDS011;13988;52.446;13.280;2024-02-21T13:30:21;6.28;;;2.35;;
26261;SDS011;13988;52.446;13.280;2024-02-21T13:32:47;7.85;;;3.13;;
26261;SDS011;13988;52.446;13.280;2024-02-21T13:35:13;5.65;;;2.88;;
26261;SDS011;13988;52.446;13.280;2024-02-21T13:37:40;7.47;;;2.78;;
26261;SDS011;13988;52.446;13.280;2024-02-21T13:40:06;7.57;;;2.92;;
26261;SDS011;13988;52.446;13.280;2024-02-21T13:42:36;4.72;;;2.20;;
26261;SDS011;13988;52.446;13.280;2024-02-21T13:45:02;3.92;;;2.53;;
26261;SDS011;13988;52.446;13.280;2024-02-21T13:47:30;3.60;;;2.33;;
26261;SDS011;13988;52.446;13.280;2024-02-21T13:49:56;5.38;;;2.30;;
26261;SDS011;13988;52.446;13.280;2024-02-21T13:52:21;4.50;;;2.15;;
26261;SDS011;13988;52.446;13.280;2024-02-21T13:54:47;3.92;;;2.38;;
26261;SDS011;13988;52.446;13.280;2024-02-21T13:57:13;6.88;;;2.80;;
26261;SDS011;13988;52.446;13.280;2024-02-21T13:59:39;4.68;;;2.13;;
26261;SDS011;13988;52.446;13.280;2024-02-21T14:02:05;6.53;;;2.20;;
26261;SDS011;13988;52.446;13.280;2024-02-21T14:04:33;10.95;;;2.50;;
26261;SDS011;13988;52.446;13.280;2024-02-21T14:06:59;6.30;;;2.80;;
26261;SDS011;13988;52.446;13.280;2024-02-21T14:09:25;8.30;;;2.63;;
26261;SDS011;13988;52.446;13.280;2024-02-21T14:11:51;5.22;;;2.70;;
26261;SDS011;13988;52.446;13.280;2024-02-21T14:14:17;5.32;;;2.15;;
26261;SDS011;13988;52.446;13.280;2024-02-21T14:16:43;9.68;;;3.17;;
26261;SDS011;13988;52.446;13.280;2024-02-21T14:19:08;7.05;;;2.70;;
26261;SDS011;13988;52.446;13.280;2024-02-21T14:21:34;3.08;;;2.40;;
26261;SDS011;13988;52.446;13.280;2024-02-21T14:24:04;4.97;;;2.40;;
26261;SDS011;13988;52.446;13.280;2024-02-21T14:26:30;10.68;;;2.70;;
26261;SDS011;13988;52.446;13.280;2024-02-21T14:28:56;7.72;;;2.22;;
26261;SDS011;13988;52.446;13.280;2024-02-21T14:31:22;5.50;;;2.75;;